Time;durP1;ratioP1;P1;durP2;ratioP2;P2;SDS_P1;SDS_P2;PMS_P1;PMS_P2;Temp;Humidity;BMP_temperature;BMP_pressure;BME280_temperature;BME280_humidity;BME280_pressure;Samples;Min_cycle;Max_cycle;Signal;HPM_P1;HPM_P2
2022/07/25 00:01:05;;;;;;;6.93;3.63;;;;;;;;;;5101650;28;20058;-70
2022/07/25 00:03:32;;;;;;;4.40;3.28;;;;;;;;;;5113075;27;20147;-69
2022/07/25 00:05:58;;;;;;;5.10;3.38;;;;;;;;;;5116576;27;20048;-69
2022/07/25 00:08:24;;;;;;;3.65;3.35;;;;;;;;;;5113606;28;20685;-70
2022/07/25 00:10:51;;;;;;;4.20;3.83;;;;;;;;;;5110765;27;20058;-70
2022/07/25 00:13:17;;;;;;;3.60;3.30;;;;;;;;;;5113576;27;20476;-70
2022/07/25 00:15:43;;;;;;;5.47;3.53;;;;;;;;;;5113158;27;20052;-70
2022/07/25 00:18:10;;;;;;;3.72;3.35;;;;;;;;;;5113185;27;20488;-70
2022/07/25 00:20:36;;;;;;;5.18;3.72;;;;;;;;;;5112130;27;20151;-70
2022/07/25 00:23:02;;;;;;;6.80;3.85;;;;;;;;;;5112325;27;20044;-70
2022/07/25 00:25:29;;;;;;;4.40;4.00;;;;;;;;;;5113409;27;20062;-70
2022/07/25 00:27:55;;;;;;;6.43;4.18;;;;;;;;;;5109740;28;20048;-70
2022/07/25 00:30:21;;;;;;;4.18;3.80;;;;;;;;;;5107007;27;20044;-70
2022/07/25 00:32:48;;;;;;;6.43;4.50;;;;;;;;;;5112937;27;20048;-70
2022/07/25 00:35:14;;;;;;;4.50;3.50;;;;;;;;;;5098250;27;20067;-70
2022/07/25 00:37:40;;;;;;;8.85;4.63;;;;;;;;;;5112394;27;20135;-70
2022/07/25 00:40:07;;;;;;;5.03;4.10;;;;;;;;;;5111327;27;20056;-70
2022/07/25 00:42:33;;;;;;;6.15;4.18;;;;;;;;;;5113094;27;20067;-70
2022/07/25 00:45:00;;;;;;;6.10;4.38;;;;;;;;;;5111339;27;20121;-70
2022/07/25 00:47:26;;;;;;;5.07;4.38;;;;;;;;;;5110570;27;20048;-70
2022/07/25 00:49:52;;;;;;;5.53;4.13;;;;;;;;;;5112771;27;20501;-70
2022/07/25 00:52:19;;;;;;;4.45;4.05;;;;;;;;;;5112116;27;20139;-70
2022/07/25 00:54:45;;;;;;;5.15;4.10;;;;;;;;;;5112481;27;20058;-70
2022/07/25 00:57:11;;;;;;;5.55;4.75;;;;;;;;;;5112975;27;20058;-70
2022/07/25 00:59:38;;;;;;;6.13;4.75;;;;;;;;;;5111194;27;20052;-70
2022/07/25 01:02:04;;;;;;;6.03;4.80;;;;;;;;;;5113444;27;20137;-70
2022/07/25 01:04:31;;;;;;;6.28;4.85;;;;;;;;;;5111317;27;20066;-70
2022/07/25 01:06:57;;;;;;;6.07;4.78;;;;;;;;;;5112726;28;20142;-70
2022/07/25 01:09:24;;;;;;;6.20;5.45;;;;;;;;;;5110272;27;20071;-70
2022/07/25 01:11:50;;;;;;;5.90;5.25;;;;;;;;;;5111096;27;20063;-70
2022/07/25 01:14:16;;;;;;;5.10;4.60;;;;;;;;;;5109042;27;20914;-70
2022/07/25 01:16:42;;;;;;;8.13;5.00;;;;;;;;;;5112586;27;20598;-70
2022/07/25 01:19:09;;;;;;;6.82;5.50;;;;;;;;;;5111043;27;20481;-70
2022/07/25 01:21:39;;;;;;;6.70;5.78;;;;;;;;;;5111111;27;20160;-70
2022/07/25 01:24:06;;;;;;;7.20;5.80;;;;;;;;;;5110412;27;20135;-70
2022/07/25 01:26:33;;;;;;;11.20;5.50;;;;;;;;;;5110079;27;20052;-70
2022/07/25 01:28:59;;;;;;;7.95;5.78;;;;;;;;;;5106923;28;20135;-70
2022/07/25 01:31:25;;;;;;;6.95;5.47;;;;;;;;;;5111429;27;20104;-70
2022/07/25 01:33:52;;;;;;;6.80;5.90;;;;;;;;;;5110541;27;20131;-70
2022/07/25 01:36:18;;;;;;;8.23;6.07;;;;;;;;;;5106520;27;20048;-71
2022/07/25 01:38:44;;;;;;;5.88;5.25;;;;;;;;;;5110809;27;20190;-70
2022/07/25 01:41:11;;;;;;;5.93;5.30;;;;;;;;;;5111393;28;20048;-70
2022/07/25 01:43:47;;;;;;;10.07;5.60;;;;;;;;;;5105828;28;20105;-71
2022/07/25 01:46:14;;;;;;;7.13;5.40;;;;;;;;;;5110081;27;20052;-70
2022/07/25 01:48:40;;;;;;;7.93;5.47;;;;;;;;;;5110455;27;20113;-70
2022/07/25 01:51:09;;;;;;;5.70;5.20;;;;;;;;;;5110067;27;20058;-70
2022/07/25 01:53:36;;;;;;;6.38;5.18;;;;;;;;;;5105546;27;20167;-70
2022/07/25 01:56:04;;;;;;;5.85;5.10;;;;;;;;;;5109974;27;20110;-70
2022/07/25 01:58:33;;;;;;;6.38;5.53;;;;;;;;;;5111524;27;20125;-70
2022/07/25 02:01:01;;;;;;;5.15;4.65;;;;;;;;;;5106340;27;20143;-70
2022/07/25 02:03:30;;;;;;;6.57;4.88;;;;;;;;;;5107078;27;20071;-70
2022/07/25 02:05:58;;;;;;;5.47;4.82;;;;;;;;;;5104331;28;20053;-70
2022/07/25 02:08:24;;;;;;;6.68;5.00;;;;;;;;;;5108315;27;20138;-70
2022/07/25 02:10:51;;;;;;;5.90;4.97;;;;;;;;;;5109759;27;20963;-70
2022/07/25 02:13:18;;;;;;;5.50;5.00;;;;;;;;;;5103881;28;20135;-70
2022/07/25 02:15:44;;;;;;;5.35;4.88;;;;;;;;;;5105982;28;20131;-70
2022/07/25 02:18:11;;;;;;;6.95;5.22;;;;;;;;;;5109284;28;20427;-70
2022/07/25 02:20:37;;;;;;;5.55;4.97;;;;;;;;;;5107403;27;20052;-70
2022/07/25 02:23:04;;;;;;;7.10;5.38;;;;;;;;;;5096563;28;20058;-71
2022/07/25 02:25:31;;;;;;;7.28;4.93;;;;;;;;;;5111786;28;20062;-70
2022/07/25 02:27:57;;;;;;;6.78;4.90;;;;;;;;;;5104443;27;20146;-70
2022/07/25 02:30:24;;;;;;;6.15;5.10;;;;;;;;;;5111346;27;20569;-70
2022/07/25 02:32:51;;;;;;;7.05;5.05;;;;;;;;;;5109257;27;20052;-70
2022/07/25 02:35:18;;;;;;;8.30;5.43;;;;;;;;;;5094105;27;20044;-70
2022/07/25 02:37:44;;;;;;;7.25;5.10;;;;;;;;;;5110709;28;20048;-70
2022/07/25 02:40:11;;;;;;;5.70;5.10;;;;;;;;;;5110412;27;20055;-70
2022/07/25 02:42:37;;;;;;;5.60;5.10;;;;;;;;;;5106449;27;20048;-69
2022/07/25 02:45:04;;;;;;;6.57;5.05;;;;;;;;;;5109591;27;20643;-69
2022/07/25 02:47:30;;;;;;;5.90;5.10;;;;;;;;;;5105011;28;20503;-69
2022/07/25 02:49:56;;;;;;;10.27;5.95;;;;;;;;;;5108634;27;20064;-69
2022/07/25 02:52:22;;;;;;;10.27;6.25;;;;;;;;;;5108868;27;20058;-69
2022/07/25 02:54:49;;;;;;;10.40;6.07;;;;;;;;;;5111335;27;20044;-69
2022/07/25 02:57:16;;;;;;;8.45;5.63;;;;;;;;;;5100191;27;20087;-69
2022/07/25 02:59:42;;;;;;;6.88;6.03;;;;;;;;;;5107926;28;20048;-69
2022/07/25 03:02:09;;;;;;;9.77;5.78;;;;;;;;;;5111674;27;20140;-69
2022/07/25 03:04:35;;;;;;;7.88;6.30;;;;;;;;;;5106759;28;20135;-69
2022/07/25 03:07:01;;;;;;;7.80;6.25;;;;;;;;;;5109199;27;20052;-69
2022/07/25 03:09:28;;;;;;;7.00;6.10;;;;;;;;;;5108322;27;20593;-70
2022/07/25 03:11:54;;;;;;;6.63;6.03;;;;;;;;;;5110915;28;20492;-70
2022/07/25 03:14:20;;;;;;;7.43;6.68;;;;;;;;;;5109724;27;20139;-70
2022/07/25 03:16:47;;;;;;;8.10;5.82;;;;;;;;;;5109310;27;20214;-69
2022/07/25 03:19:13;;;;;;;6.85;6.10;;;;;;;;;;5109603;27;20051;-70
2022/07/25 03:21:39;;;;;;;6.53;5.82;;;;;;;;;;5108104;27;20048;-70
2022/07/25 03:24:06;;;;;;;9.23;6.63;;;;;;;;;;5109600;27;20088;-70
2022/07/25 03:26:32;;;;;;;9.10;6.13;;;;;;;;;;5108703;28;20102;-69
2022/07/25 03:28:59;;;;;;;10.68;6.90;;;;;;;;;;5106574;27;20147;-69
2022/07/25 03:31:25;;;;;;;8.07;6.63;;;;;;;;;;5092511;28;20587;-69
2022/07/25 03:33:51;;;;;;;10.23;7.10;;;;;;;;;;5104747;28;20052;-70
2022/07/25 03:36:18;;;;;;;7.90;6.97;;;;;;;;;;5110771;27;20077;-70
2022/07/25 03:38:44;;;;;;;8.68;7.32;;;;;;;;;;5107676;27;20105;-70
2022/07/25 03:41:11;;;;;;;8.13;7.10;;;;;;;;;;5111619;28;20054;-70
2022/07/25 03:43:38;;;;;;;9.25;7.00;;;;;;;;;;5110177;27;20056;-70
2022/07/25 03:46:04;;;;;;;8.50;7.38;;;;;;;;;;5110625;27;20062;-70
2022/07/25 03:48:30;;;;;;;13.65;7.20;;;;;;;;;;5109376;27;20071;-70
2022/07/25 03:50:57;;;;;;;7.93;6.72;;;;;;;;;;5107851;27;20056;-70
2022/07/25 03:53:27;;;;;;;11.13;7.88;;;;;;;;;;5111406;28;20552;-70
2022/07/25 03:55:53;;;;;;;9.23;7.85;;;;;;;;;;5112747;27;20050;-70
2022/07/25 03:58:20;;;;;;;10.43;8.02;;;;;;;;;;5112948;28;20251;-70
2022/07/25 04:00:47;;;;;;;12.40;8.20;;;;;;;;;;5110934;28;20048;-70
2022/07/25 04:03:13;;;;;;;10.07;8.27;;;;;;;;;;5111632;27;20052;-70
2022/07/25 04:05:40;;;;;;;11.27;8.10;;;;;;;;;;5111804;27;20059;-70
2022/07/25 04:08:13;;;;;;;8.07;7.07;;;;;;;;;;5111615;27;20159;-69
2022/07/25 04:10:39;;;;;;;9.25;7.72;;;;;;;;;;5110104;28;20063;-70
2022/07/25 04:13:05;;;;;;;8.90;8.00;;;;;;;;;;5106918;27;20133;-70
2022/07/25 04:15:32;;;;;;;8.93;7.63;;;;;;;;;;5105598;28;20134;-70
2022/07/25 04:17:58;;;;;;;8.77;7.97;;;;;;;;;;5113372;27;20052;-68
2022/07/25 04:20:25;;;;;;;8.52;7.72;;;;;;;;;;5110625;27;20052;-68
2022/07/25 04:22:52;;;;;;;9.25;8.10;;;;;;;;;;5112075;27;20439;-68
2022/07/25 04:25:18;;;;;;;10.88;7.57;;;;;;;;;;5112982;27;20380;-69
2022/07/25 04:27:44;;;;;;;9.48;7.25;;;;;;;;;;5110979;27;20044;-69
2022/07/25 04:30:11;;;;;;;11.82;7.30;;;;;;;;;;5111658;28;20060;-68
2022/07/25 04:32:37;;;;;;;8.70;7.70;;;;;;;;;;5112172;27;20059;-69
2022/07/25 04:35:04;;;;;;;11.88;7.50;;;;;;;;;;5109748;28;20052;-68
2022/07/25 04:37:30;;;;;;;9.25;7.55;;;;;;;;;;5111920;27;20052;-68
2022/07/25 04:39:56;;;;;;;8.65;6.82;;;;;;;;;;5113025;27;20066;-69
2022/07/25 04:42:23;;;;;;;14.57;7.63;;;;;;;;;;5110837;27;20092;-69
2022/07/25 04:44:49;;;;;;;8.27;7.43;;;;;;;;;;5109286;27;21188;-69
2022/07/25 04:47:15;;;;;;;10.20;6.78;;;;;;;;;;5112381;28;20070;-69
2022/07/25 04:49:41;;;;;;;9.60;7.00;;;;;;;;;;5111795;27;20052;-69
2022/07/25 04:52:08;;;;;;;8.88;7.50;;;;;;;;;;5113042;27;20056;-70
2022/07/25 04:54:34;;;;;;;8.35;7.43;;;;;;;;;;5106304;27;20049;-69
2022/07/25 04:57:03;;;;;;;7.88;6.60;;;;;;;;;;5115679;27;20059;-69
2022/07/25 04:59:30;;;;;;;8.75;6.55;;;;;;;;;;5112229;28;20089;-69
2022/07/25 05:01:56;;;;;;;7.90;6.97;;;;;;;;;;5113436;27;20052;-69
2022/07/25 05:04:22;;;;;;;7.60;6.75;;;;;;;;;;5111947;27;20059;-69
2022/07/25 05:06:49;;;;;;;8.82;6.45;;;;;;;;;;5110093;27;20059;-70
2022/07/25 05:09:15;;;;;;;9.95;7.28;;;;;;;;;;5113597;27;20143;-70
2022/07/25 05:11:41;;;;;;;13.57;7.00;;;;;;;;;;5112003;27;20502;-69
2022/07/25 05:14:14;;;;;;;11.77;7.03;;;;;;;;;;5113205;27;20084;-70
2022/07/25 05:16:41;;;;;;;8.25;6.65;;;;;;;;;;5112632;28;20060;-70
2022/07/25 05:19:08;;;;;;;8.88;6.82;;;;;;;;;;5113212;27;20172;-70
2022/07/25 05:21:34;;;;;;;11.38;7.40;;;;;;;;;;5109147;27;20048;-69
2022/07/25 05:24:01;;;;;;;7.00;6.30;;;;;;;;;;5112926;27;20511;-69
2022/07/25 05:26:27;;;;;;;8.55;6.75;;;;;;;;;;5112528;27;20561;-69
2022/07/25 05:28:53;;;;;;;8.80;7.63;;;;;;;;;;5112079;27;20484;-70
2022/07/25 05:31:20;;;;;;;9.10;7.07;;;;;;;;;;5110675;27;20048;-69
2022/07/25 05:33:46;;;;;;;11.02;8.07;;;;;;;;;;5112550;27;20959;-69
2022/07/25 05:36:13;;;;;;;12.32;7.65;;;;;;;;;;5112022;27;20068;-69
2022/07/25 05:38:39;;;;;;;11.05;8.48;;;;;;;;;;5110535;27;20141;-69
2022/07/25 05:41:06;;;;;;;8.60;7.70;;;;;;;;;;5112557;27;20052;-69
2022/07/25 05:43:32;;;;;;;10.98;8.82;;;;;;;;;;5108018;28;20518;-70
2022/07/25 05:45:59;;;;;;;9.50;8.07;;;;;;;;;;5110208;28;20052;-70
2022/07/25 05:48:25;;;;;;;11.48;8.45;;;;;;;;;;5121907;27;20052;-69
2022/07/25 05:50:52;;;;;;;10.95;7.78;;;;;;;;;;5109692;27;20853;-67
2022/07/25 05:53:18;;;;;;;10.07;8.07;;;;;;;;;;5099591;27;20095;-71
2022/07/25 05:55:44;;;;;;;17.75;8.77;;;;;;;;;;5106858;28;20056;-69
2022/07/25 05:58:11;;;;;;;9.13;7.35;;;;;;;;;;5108568;28;20059;-69
2022/07/25 06:00:38;;;;;;;16.42;8.38;;;;;;;;;;5110460;28;20340;-69
2022/07/25 06:03:04;;;;;;;9.82;8.05;;;;;;;;;;5106134;27;20052;-69
2022/07/25 06:05:31;;;;;;;12.00;8.23;;;;;;;;;;5111290;28;20090;-69
2022/07/25 06:07:57;;;;;;;9.20;8.15;;;;;;;;;;5111082;27;20136;-67
2022/07/25 06:10:23;;;;;;;11.90;7.80;;;;;;;;;;5107702;27;20052;-68
2022/07/25 06:12:50;;;;;;;12.43;8.68;;;;;;;;;;5107070;28;20078;-68
2022/07/25 06:15:16;;;;;;;8.65;7.65;;;;;;;;;;5112255;27;20059;-69
2022/07/25 06:17:50;;;;;;;9.68;8.57;;;;;;;;;;5101748;28;20059;-68
2022/07/25 06:20:16;;;;;;;10.00;7.60;;;;;;;;;;5112400;28;20144;-69
2022/07/25 06:22:42;;;;;;;9.52;8.00;;;;;;;;;;5111218;27;20184;-68
2022/07/25 06:25:10;;;;;;;9.48;7.63;;;;;;;;;;5112785;27;20059;-68
2022/07/25 06:27:36;;;;;;;14.43;8.50;;;;;;;;;;5113427;27;20129;-68
2022/07/25 06:30:04;;;;;;;9.23;8.32;;;;;;;;;;5111190;27;20093;-68
2022/07/25 06:32:33;;;;;;;10.23;7.80;;;;;;;;;;5111978;27;20056;-68
2022/07/25 06:35:00;;;;;;;9.10;7.28;;;;;;;;;;5104373;27;20131;-69
2022/07/25 06:37:26;;;;;;;10.07;6.80;;;;;;;;;;5112633;28;20573;-68
2022/07/25 06:39:53;;;;;;;10.65;6.18;;;;;;;;;;5112230;27;20074;-69
2022/07/25 06:42:20;;;;;;;9.85;6.63;;;;;;;;;;5112864;27;20094;-70
2022/07/25 06:44:47;;;;;;;8.52;5.70;;;;;;;;;;5111532;27;20059;-68
2022/07/25 06:47:13;;;;;;;9.48;6.07;;;;;;;;;;5111712;28;20052;-69
2022/07/25 06:49:40;;;;;;;6.93;5.43;;;;;;;;;;5110798;27;20056;-70
2022/07/25 06:52:07;;;;;;;10.90;5.10;;;;;;;;;;5110454;27;20048;-69
2022/07/25 06:54:33;;;;;;;5.50;4.13;;;;;;;;;;5112450;27;20054;-71
2022/07/25 06:57:00;;;;;;;6.35;4.05;;;;;;;;;;5111241;28;20056;-72
2022/07/25 06:59:26;;;;;;;7.22;3.58;;;;;;;;;;5100546;27;20048;-71
2022/07/25 07:01:52;;;;;;;4.57;3.42;;;;;;;;;;5098056;28;20056;-68
2022/07/25 07:04:20;;;;;;;4.65;3.63;;;;;;;;;;5094554;27;20067;-69
2022/07/25 07:06:46;;;;;;;3.72;3.03;;;;;;;;;;5103485;28;20135;-70
2022/07/25 07:09:12;;;;;;;7.10;2.90;;;;;;;;;;5096297;27;20052;-68
2022/07/25 07:11:39;;;;;;;5.18;2.85;;;;;;;;;;5098028;28;20052;-68
2022/07/25 07:14:05;;;;;;;6.50;3.00;;;;;;;;;;5103671;27;20056;-67
2022/07/25 07:16:32;;;;;;;3.15;2.30;;;;;;;;;;5091200;28;20106;-68
2022/07/25 07:18:58;;;;;;;8.18;2.63;;;;;;;;;;5100734;28;20604;-68
2022/07/25 07:21:25;;;;;;;5.00;2.28;;;;;;;;;;5110155;28;20088;-68
2022/07/25 07:23:51;;;;;;;3.03;2.30;;;;;;;;;;5110087;27;20143;-69
2022/07/25 07:26:19;;;;;;;6.28;2.63;;;;;;;;;;5097592;27;20061;-69
2022/07/25 07:28:45;;;;;;;4.70;2.28;;;;;;;;;;5094663;28;20114;-70
2022/07/25 07:31:11;;;;;;;3.78;2.45;;;;;;;;;;5106296;28;20052;-71
2022/07/25 07:33:43;;;;;;;2.65;1.98;;;;;;;;;;5094722;28;20048;-72
2022/07/25 07:36:09;;;;;;;3.20;2.42;;;;;;;;;;5108800;28;20048;-71
2022/07/25 07:38:35;;;;;;;2.28;2.00;;;;;;;;;;5114783;27;20052;-72
2022/07/25 07:41:02;;;;;;;2.25;1.65;;;;;;;;;;5114137;27;20052;-71
2022/07/25 07:43:30;;;;;;;3.92;1.63;;;;;;;;;;5115005;27;20526;-70
2022/07/25 07:46:00;;;;;;;5.60;1.80;;;;;;;;;;5115120;27;20044;-69
2022/07/25 07:48:27;;;;;;;3.03;1.70;;;;;;;;;;5113532;27;20056;-69
2022/07/25 07:50:54;;;;;;;5.38;2.22;;;;;;;;;;5112756;28;20144;-71
2022/07/25 07:53:20;;;;;;;5.03;2.05;;;;;;;;;;5114839;27;20048;-68
2022/07/25 07:55:54;;;;;;;5.75;1.90;;;;;;;;;;5113019;27;20143;-70
2022/07/25 07:58:20;;;;;;;4.15;1.80;;;;;;;;;;5095929;28;20558;-70
2022/07/25 08:00:47;;;;;;;3.05;1.88;;;;;;;;;;5110573;27;20083;-72
2022/07/25 08:03:18;;;;;;;2.67;1.42;;;;;;;;;;5113440;28;20087;-68
2022/07/25 08:05:47;;;;;;;2.95;1.73;;;;;;;;;;5114491;27;20048;-68
2022/07/25 08:08:14;;;;;;;2.75;1.65;;;;;;;;;;5114257;27;20059;-69
2022/07/25 08:10:41;;;;;;;2.47;1.35;;;;;;;;;;5113348;27;20054;-69
2022/07/25 08:13:15;;;;;;;2.10;1.42;;;;;;;;;;5114106;27;20052;-69
2022/07/25 08:15:42;;;;;;;2.13;1.30;;;;;;;;;;5112173;27;20056;-69
2022/07/25 08:18:08;;;;;;;3.17;1.10;;;;;;;;;;5113478;28;20060;-72
2022/07/25 08:20:43;;;;;;;4.40;1.27;;;;;;;;;;5111966;27;20052;-70
2022/07/25 08:23:10;;;;;;;2.78;1.10;;;;;;;;;;5112929;28;20506;-73
2022/07/25 08:25:36;;;;;;;0.90;0.90;;;;;;;;;;5112607;28;20181;-74
2022/07/25 08:28:05;;;;;;;4.00;1.45;;;;;;;;;;5113089;27;20147;-72
2022/07/25 08:30:31;;;;;;;4.88;1.70;;;;;;;;;;5114261;27;20048;-73
2022/07/25 08:32:59;;;;;;;4.50;1.35;;;;;;;;;;5113705;27;20072;-71
2022/07/25 08:35:26;;;;;;;3.80;1.25;;;;;;;;;;5114054;27;20400;-71
2022/07/25 08:37:53;;;;;;;3.40;1.15;;;;;;;;;;5106126;27;20088;-71
2022/07/25 08:40:20;;;;;;;3.47;1.33;;;;;;;;;;5113652;27;20056;-71
2022/07/25 08:42:47;;;;;;;7.15;1.50;;;;;;;;;;5109723;28;20143;-73
2022/07/25 08:45:18;;;;;;;6.53;1.52;;;;;;;;;;5110966;28;20525;-74
2022/07/25 08:47:49;;;;;;;7.68;1.20;;;;;;;;;;5103513;27;20142;-72
2022/07/25 08:50:18;;;;;;;4.28;1.45;;;;;;;;;;5092716;28;20056;-70
2022/07/25 08:52:46;;;;;;;2.53;1.30;;;;;;;;;;5092060;28;20044;-72
2022/07/25 08:55:15;;;;;;;3.25;1.60;;;;;;;;;;5096926;28;20142;-72
2022/07/25 08:57:42;;;;;;;6.97;1.52;;;;;;;;;;5113797;28;20506;-69
2022/07/25 09:00:10;;;;;;;3.78;1.35;;;;;;;;;;5113220;27;20533;-70
2022/07/25 09:02:37;;;;;;;4.20;1.25;;;;;;;;;;5108102;28;20058;-72
2022/07/25 09:05:04;;;;;;;4.45;1.35;;;;;;;;;;5113239;28;20048;-71
2022/07/25 09:07:31;;;;;;;4.13;1.52;;;;;;;;;;5112458;28;20052;-71
2022/07/25 09:09:57;;;;;;;3.28;1.55;;;;;;;;;;5113166;28;20062;-70
2022/07/25 09:12:24;;;;;;;4.88;1.65;;;;;;;;;;5113021;28;20134;-72
2022/07/25 09:14:51;;;;;;;3.65;1.42;;;;;;;;;;5113734;28;20052;-72
2022/07/25 09:17:17;;;;;;;3.17;1.38;;;;;;;;;;5113535;27;20137;-72
2022/07/25 09:19:53;;;;;;;3.00;1.35;;;;;;;;;;5113932;27;20531;-74
2022/07/25 09:22:19;;;;;;;3.90;1.55;;;;;;;;;;5112237;27;20079;-73
2022/07/25 09:24:46;;;;;;;2.40;1.25;;;;;;;;;;5113282;28;20135;-72
2022/07/25 09:27:13;;;;;;;3.63;1.50;;;;;;;;;;5111953;28;20095;-76
2022/07/25 09:29:43;;;;;;;4.97;1.45;;;;;;;;;;5112278;27;20051;-73
2022/07/25 09:32:13;;;;;;;2.78;1.58;;;;;;;;;;5112734;27;20497;-71
2022/07/25 09:34:40;;;;;;;5.65;1.90;;;;;;;;;;5100675;28;20048;-70
2022/07/25 09:37:07;;;;;;;10.60;2.17;;;;;;;;;;5106979;28;20055;-70
2022/07/25 09:39:43;;;;;;;6.20;1.70;;;;;;;;;;5098426;28;20611;-70
2022/07/25 09:42:23;;;;;;;14.55;2.13;;;;;;;;;;5100614;27;20048;-74
2022/07/25 09:44:56;;;;;;;8.48;2.22;;;;;;;;;;5110799;27;20095;-77
2022/07/25 09:47:23;;;;;;;5.32;1.92;;;;;;;;;;5112149;27;20056;-69
2022/07/25 09:49:49;;;;;;;4.13;1.92;;;;;;;;;;5110612;27;20056;-73
2022/07/25 09:52:16;;;;;;;4.13;1.75;;;;;;;;;;5111831;28;20511;-75
2022/07/25 09:54:43;;;;;;;4.22;1.70;;;;;;;;;;5113355;27;20052;-72
2022/07/25 09:57:09;;;;;;;5.43;1.85;;;;;;;;;;5113123;28;20063;-74
2022/07/25 09:59:38;;;;;;;5.05;1.70;;;;;;;;;;5113626;27;20051;-72
2022/07/25 10:02:08;;;;;;;5.45;2.22;;;;;;;;;;5112079;28;20062;-74
2022/07/25 10:04:54;;;;;;;4.95;1.80;;;;;;;;;;5111854;28;20076;-71
2022/07/25 10:07:21;;;;;;;5.85;1.95;;;;;;;;;;5110845;27;20598;-75
2022/07/25 10:09:49;;;;;;;6.22;1.98;;;;;;;;;;5113811;27;20082;-76
2022/07/25 10:12:20;;;;;;;4.13;1.42;;;;;;;;;;5112881;27;20083;-77
2022/07/25 10:15:07;;;;;;;4.72;1.63;;;;;;;;;;5113478;27;20058;-76
2022/07/25 10:17:35;;;;;;;3.58;1.50;;;;;;;;;;5113092;27;20083;-74
2022/07/25 10:20:03;;;;;;;6.80;2.05;;;;;;;;;;5111813;28;20495;-72
2022/07/25 10:22:36;;;;;;;4.63;1.65;;;;;;;;;;5110243;28;20048;-73
2022/07/25 10:25:22;;;;;;;7.85;2.22;;;;;;;;;;5111644;28;20086;-72
2022/07/25 10:27:51;;;;;;;3.58;1.60;;;;;;;;;;5113359;27;20052;-73
2022/07/25 10:30:19;;;;;;;3.88;1.80;;;;;;;;;;5114639;27;20047;-71
2022/07/25 10:32:50;;;;;;;4.80;1.80;;;;;;;;;;5113964;27;20051;-73
2022/07/25 10:35:16;;;;;;;4.00;2.05;;;;;;;;;;5120962;27;20509;-71
2022/07/25 10:37:44;;;;;;;5.53;1.77;;;;;;;;;;5118498;27;20131;-71
2022/07/25 10:40:24;;;;;;;2.85;1.48;;;;;;;;;;5113171;28;20055;-72
2022/07/25 10:42:54;;;;;;;4.25;1.95;;;;;;;;;;5099314;27;20056;-72
2022/07/25 10:45:24;;;;;;;5.30;1.98;;;;;;;;;;5109624;28;20052;-71
2022/07/25 10:47:54;;;;;;;3.60;1.95;;;;;;;;;;5113106;27;20048;-73
2022/07/25 10:50:22;;;;;;;6.93;2.10;;;;;;;;;;5111013;27;20060;-72
2022/07/25 10:53:08;;;;;;;6.90;2.08;;;;;;;;;;5109241;27;20466;-72
2022/07/25 10:55:36;;;;;;;5.18;1.90;;;;;;;;;;5111904;27;20135;-69
2022/07/25 10:58:05;;;;;;;4.53;1.80;;;;;;;;;;5113036;27;20495;-71
2022/07/25 11:00:46;;;;;;;6.95;1.92;;;;;;;;;;5111467;27;20083;-70
2022/07/25 11:03:13;;;;;;;5.10;2.05;;;;;;;;;;5115182;27;20180;-71
2022/07/25 11:05:45;;;;;;;8.13;2.67;;;;;;;;;;5114113;27;20059;-72
2022/07/25 11:08:11;;;;;;;6.55;2.33;;;;;;;;;;5110380;28;20048;-73
2022/07/25 11:10:51;;;;;;;6.03;2.10;;;;;;;;;;5111225;28;20149;-73
2022/07/25 11:13:17;;;;;;;8.13;2.42;;;;;;;;;;5116377;27;20078;-71
2022/07/25 11:15:44;;;;;;;5.72;2.20;;;;;;;;;;5115898;27;20055;-70
2022/07/25 11:18:10;;;;;;;6.43;2.08;;;;;;;;;;5114866;27;20537;-69
2022/07/25 11:20:37;;;;;;;5.38;2.10;;;;;;;;;;5114840;27;20040;-71
2022/07/25 11:23:03;;;;;;;6.43;2.17;;;;;;;;;;5115500;27;20573;-70
2022/07/25 11:25:29;;;;;;;6.07;2.20;;;;;;;;;;5115634;27;20143;-70
2022/07/25 11:27:57;;;;;;;6.20;2.25;;;;;;;;;;5107209;27;20547;-71
2022/07/25 11:30:23;;;;;;;6.18;2.42;;;;;;;;;;5114791;28;20095;-72
2022/07/25 11:32:53;;;;;;;4.43;2.55;;;;;;;;;;5114234;28;20541;-71
2022/07/25 11:35:26;;;;;;;9.23;3.30;;;;;;;;;;5111144;27;20045;-74
2022/07/25 11:37:53;;;;;;;8.02;2.75;;;;;;;;;;5109263;28;20056;-69
2022/07/25 11:40:20;;;;;;;5.60;2.65;;;;;;;;;;5114990;27;20047;-70
2022/07/25 11:42:54;;;;;;;5.78;2.47;;;;;;;;;;5116027;27;20551;-71
2022/07/25 11:45:27;;;;;;;10.63;3.22;;;;;;;;;;5111894;27;20947;-71
2022/07/25 11:48:12;;;;;;;5.88;2.72;;;;;;;;;;5114860;28;20564;-72
2022/07/25 11:50:42;;;;;;;9.23;2.97;;;;;;;;;;5099260;28;21097;-70
2022/07/25 11:53:13;;;;;;;10.13;3.22;;;;;;;;;;5093762;28;20056;-70
2022/07/25 11:55:43;;;;;;;9.60;3.22;;;;;;;;;;5118273;27;20056;-71
2022/07/25 11:58:11;;;;;;;9.70;2.85;;;;;;;;;;5115571;27;20652;-69
2022/07/25 12:00:39;;;;;;;9.00;2.85;;;;;;;;;;5114563;28;20135;-69
2022/07/25 12:03:09;;;;;;;8.18;2.97;;;;;;;;;;5106586;27;20048;-69
2022/07/25 12:05:44;;;;;;;10.60;3.55;;;;;;;;;;5112845;27;20525;-68
2022/07/25 12:08:11;;;;;;;7.95;3.17;;;;;;;;;;5113336;28;20160;-68
2022/07/25 12:10:38;;;;;;;7.60;2.63;;;;;;;;;;5114715;27;20079;-67
2022/07/25 12:13:06;;;;;;;12.68;3.47;;;;;;;;;;5114369;27;20670;-67
2022/07/25 12:15:37;;;;;;;13.15;2.63;;;;;;;;;;5113034;27;20054;-68
2022/07/25 12:18:05;;;;;;;5.97;2.65;;;;;;;;;;5113426;27;20058;-68
2022/07/25 12:20:34;;;;;;;7.80;3.03;;;;;;;;;;5113448;28;20135;-70
2022/07/25 12:23:03;;;;;;;7.30;2.70;;;;;;;;;;5112736;27;20055;-71
2022/07/25 12:25:30;;;;;;;9.88;2.80;;;;;;;;;;5112995;27;20123;-72
2022/07/25 12:28:00;;;;;;;9.65;3.05;;;;;;;;;;5112478;28;20050;-73
2022/07/25 12:30:27;;;;;;;7.38;2.75;;;;;;;;;;5114190;27;20056;-69
2022/07/25 12:32:54;;;;;;;4.85;2.63;;;;;;;;;;5105062;27;20063;-69
2022/07/25 12:35:20;;;;;;;10.02;3.17;;;;;;;;;;5103711;28;20139;-76
2022/07/25 12:37:46;;;;;;;19.23;3.75;;;;;;;;;;5114368;28;20056;-71
2022/07/25 12:40:13;;;;;;;7.45;2.80;;;;;;;;;;5113033;28;20149;-70
2022/07/25 12:42:40;;;;;;;8.00;2.90;;;;;;;;;;5108056;28;20138;-68
2022/07/25 12:45:07;;;;;;;10.57;2.80;;;;;;;;;;5113276;28;20135;-68
2022/07/25 12:47:34;;;;;;;11.77;3.45;;;;;;;;;;5113883;28;20167;-69
2022/07/25 12:50:00;;;;;;;10.38;2.90;;;;;;;;;;5112627;28;20118;-70
2022/07/25 12:52:27;;;;;;;12.48;3.17;;;;;;;;;;5110430;28;20052;-70
2022/07/25 12:54:53;;;;;;;6.18;2.30;;;;;;;;;;5111847;27;20055;-72
2022/07/25 12:57:19;;;;;;;4.75;2.03;;;;;;;;;;5112988;27;20056;-71
2022/07/25 12:59:46;;;;;;;7.45;2.30;;;;;;;;;;5109242;27;20151;-71
2022/07/25 13:02:12;;;;;;;10.02;2.78;;;;;;;;;;5108630;28;20161;-69
2022/07/25 13:04:39;;;;;;;8.25;2.22;;;;;;;;;;5113503;27;20569;-70
2022/07/25 13:07:05;;;;;;;9.38;2.55;;;;;;;;;;5109264;27;20097;-72
2022/07/25 13:09:32;;;;;;;7.85;2.20;;;;;;;;;;5114060;27;20246;-72
2022/07/25 13:11:58;;;;;;;6.70;2.58;;;;;;;;;;5109381;27;20062;-73
2022/07/25 13:14:25;;;;;;;9.57;1.95;;;;;;;;;;5112716;27;20572;-72
2022/07/25 13:16:51;;;;;;;5.95;1.90;;;;;;;;;;5113334;28;20064;-71
2022/07/25 13:19:17;;;;;;;11.02;2.72;;;;;;;;;;5112021;27;20090;-69
2022/07/25 13:21:44;;;;;;;6.18;1.92;;;;;;;;;;5113236;27;20086;-69
2022/07/25 13:24:10;;;;;;;3.92;1.75;;;;;;;;;;5111425;27;20142;-79
2022/07/25 13:26:37;;;;;;;8.93;2.42;;;;;;;;;;5113497;28;20048;-75
2022/07/25 13:29:07;;;;;;;11.27;2.30;;;;;;;;;;5105987;27;20565;-72
2022/07/25 13:31:39;;;;;;;8.95;2.30;;;;;;;;;;5117466;27;20455;-72
2022/07/25 13:34:07;;;;;;;8.57;2.42;;;;;;;;;;5109686;27;20045;-70
2022/07/25 13:36:33;;;;;;;11.32;3.00;;;;;;;;;;5119995;27;20052;-70
2022/07/25 13:39:00;;;;;;;13.88;3.50;;;;;;;;;;5105893;27;20105;-72
2022/07/25 13:41:27;;;;;;;8.93;2.65;;;;;;;;;;5113890;27;20083;-71
2022/07/25 13:43:53;;;;;;;7.40;2.33;;;;;;;;;;5111449;27;20052;-68
2022/07/25 13:46:20;;;;;;;12.07;2.53;;;;;;;;;;5113012;27;20195;-68
2022/07/25 13:48:46;;;;;;;8.88;2.20;;;;;;;;;;5112185;27;20056;-72
2022/07/25 13:51:13;;;;;;;9.63;2.30;;;;;;;;;;5111442;27;20056;-70
2022/07/25 13:53:39;;;;;;;9.15;2.15;;;;;;;;;;5112681;27;20049;-72
2022/07/25 13:56:07;;;;;;;8.57;2.05;;;;;;;;;;5113377;28;20082;-73
2022/07/25 13:58:33;;;;;;;7.88;2.40;;;;;;;;;;5111624;27;20052;-67
2022/07/25 14:01:00;;;;;;;5.00;1.63;;;;;;;;;;5108588;28;20048;-68
2022/07/25 14:03:26;;;;;;;3.38;1.40;;;;;;;;;;5112255;28;20499;-70
2022/07/25 14:05:53;;;;;;;7.60;1.92;;;;;;;;;;5110919;27;20143;-69
2022/07/25 14:08:19;;;;;;;8.57;1.90;;;;;;;;;;5110871;27;20190;-71
2022/07/25 14:10:46;;;;;;;6.82;1.75;;;;;;;;;;5112742;27;20127;-68
2022/07/25 14:13:12;;;;;;;8.50;2.05;;;;;;;;;;5112879;28;20082;-70
2022/07/25 14:15:39;;;;;;;6.43;1.80;;;;;;;;;;5113140;27;20521;-71
2022/07/25 14:18:05;;;;;;;9.30;2.13;;;;;;;;;;5097080;27;20500;-72
2022/07/25 14:20:31;;;;;;;6.25;2.05;;;;;;;;;;5096981;28;20051;-72
2022/07/25 14:22:58;;;;;;;8.55;2.28;;;;;;;;;;5113989;27;20059;-71
2022/07/25 14:25:24;;;;;;;7.70;1.77;;;;;;;;;;5113884;28;20052;-72
2022/07/25 14:27:51;;;;;;;6.25;1.80;;;;;;;;;;5115332;27;20090;-72
2022/07/25 14:30:17;;;;;;;8.57;1.98;;;;;;;;;;5117946;27;20114;-72
2022/07/25 14:32:43;;;;;;;11.25;2.20;;;;;;;;;;5097914;27;20044;-69
2022/07/25 14:35:10;;;;;;;8.52;2.17;;;;;;;;;;5115480;27;20087;-68
2022/07/25 14:37:38;;;;;;;5.82;1.55;;;;;;;;;;5113334;28;20056;-75
2022/07/25 14:40:04;;;;;;;5.93;1.75;;;;;;;;;;5112694;27;20495;-74
2022/07/25 14:42:31;;;;;;;6.22;1.60;;;;;;;;;;5110181;27;20056;-72